Lake Fork, IL (62541)

5:06 AM CDT on August 28, 2015 (GMT -0500)
S. Lanesville | | Change Station
CLOSE
Current Station
Personal Weather Station
Location: Mechanicsburg, IL
Elevation: 591 ft
Nearby Weather Stations

Elev 591 ft 39.85 °N, 89.35 °W | Updated 7 minutes ago

Clear
Clear
57.0 °F
Feels Like 57.0 °F
N
0.0
Wind Variable Wind from SSE
Gusts 0.0 mph

Today
High -- | Low -- °F
--% Chance of Precip.
Yesterday
High -- | Low -- °F
Precip. -- in
6:21 AM 7:35 PM
Waxing Gibbous, 97% visible
Pressure 30.11 in
Visibility 10.0 miles
Clouds Clear
Dew Point 56 °F
Humidity 95%
Rainfall 0.00 in
Snow Depth Not available.
UV 0 out of 12
Pollen 9.80 out of 12
Air Quality Not available.
Flu Activity Not available.
METAR KAAA 280955Z AUTO 00000KT 10SM CLR 15/14 A3011 RMK AO2 T01510136
Pressure 30.11 in
Visibility 10.0 miles
Clouds Clear
Dew Point 56 °F
Humidity 95%
Rainfall 0.00 in
Snow Depth Not available.
UV 0 out of 12
Pollen 9.80 out of 12
Air Quality Not available.
Flu Activity Not available.
METAR KAAA 280955Z AUTO 00000KT 10SM CLR 15/14 A3011 RMK AO2 T01510136

10-Day Weather Forecast

×

Almanac

Astronomy

Aug. 28, 2015 Rise Set
Actual Time
Civil Twilight
Nautical Twilight
Astronomical Twilight
Moon
Length of Visible Light
Length of Day
Tomorrow will be .
, % of the Moon is Illuminated

Today's Extremes

State Highs State Lows

Community

WunderPhotos

Upload Photos

1,850,355 photos uploaded!

WunderBlogs® & News

Nearby

Air Quality

  Air Quality AQ Index Pollutant
Not available.

Snow Depth

Station Depth Elevation

Earthquake Activity

City Distance Mag. Time & Date
Minimum magnitude displayed is 2.5.

Coastal Water Temperatures

Place Temperature

Stations

Nearby Weather Stations

Station Location Temp. Windchill Dew Point Humidity Wind Precip. Elev Updated Type